Time;durP1;ratioP1;P1;durP2;ratioP2;P2;SDS_P1;SDS_P2;PMS_P1;PMS_P2;Temp;Humidity;BMP_temperature;BMP_pressure;BME280_temperature;BME280_humidity;BME280_pressure;Samples;Min_cycle;Max_cycle;Signal;HPM_P1;HPM_P2
2021/12/18 00:00:07;;;;;;;22.63;15.73;;;;;;;5.97;84.05;102981.16;4769001;30;20117;-67
2021/12/18 00:03:18;;;;;;;20.63;14.00;;;;;;;5.88;84.33;102977.59;4768564;30;20092;-67
2021/12/18 00:06:22;;;;;;;;;;;;;;;5.65;85.05;102986.09;4751409;30;20067;-67
2021/12/18 00:09:26;;;;;;;19.48;13.70;;;;;;;5.79;84.79;102987.03;4751225;30;19975;-67
2021/12/18 00:12:29;;;;;;;18.08;12.52;;;;;;;5.89;85.18;102979.31;4751057;30;20126;-67
2021/12/18 00:15:32;;;;;;;19.05;13.40;;;;;;;5.81;84.93;102982.75;4751300;30;20047;-67
2021/12/18 00:18:35;;;;;;;19.23;12.38;;;;;;;5.83;84.63;102975.81;4751469;30;20121;-67
2021/12/18 00:21:39;;;;;;;;;;;;;;;5.56;85.77;102973.03;4769350;30;20086;-67
2021/12/18 00:24:42;;;;;;;15.60;11.57;;;;;;;5.71;84.98;102973.16;4768714;30;19928;-67
2021/12/18 00:27:45;;;;;;;19.30;13.13;;;;;;;5.59;85.37;102962.69;4768684;30;20047;-67
2021/12/18 00:30:48;;;;;;;;;;;;;;;5.69;84.69;102974.88;4769241;30;20066;-67
2021/12/18 00:33:52;;;;;;;25.42;17.55;;;;;;;5.81;84.38;102974.09;4768332;30;19925;-67
2021/12/18 00:36:55;;;;;;;21.15;14.00;;;;;;;5.86;84.20;102974.09;4768728;30;20066;-68
2021/12/18 00:40:00;;;;;;;20.65;15.55;;;;;;;5.53;85.06;102973.88;4769364;30;20346;-67
2021/12/18 00:43:20;;;;;;;16.73;11.98;;;;;;;5.03;87.25;102970.84;4772066;30;20500;-67
2021/12/18 00:46:23;;;;;;;20.95;15.60;;;;;;;5.07;87.22;102970.00;4772051;30;20066;-67
2021/12/18 00:49:26;;;;;;;;;;;;;;;4.83;87.59;102962.84;4772404;30;20414;-67
2021/12/18 00:52:29;;;;;;;26.75;21.73;;;;;;;4.97;87.47;102960.41;4771940;30;20342;-67
2021/12/18 00:55:34;;;;;;;25.77;19.10;;;;;;;5.18;86.62;102950.22;4771736;30;20514;-67
2021/12/18 00:58:38;;;;;;;20.17;15.45;;;;;;;5.20;86.50;102953.72;4771819;30;20097;-67
2021/12/18 01:01:41;;;;;;;24.83;16.88;;;;;;;5.08;86.16;102951.88;4771692;30;20170;-67
2021/12/18 01:04:45;;;;;;;27.63;18.77;;;;;;;5.18;85.86;102954.56;4771445;30;20132;-67
2021/12/18 01:07:48;;;;;;;21.73;13.88;;;;;;;5.13;85.68;102951.91;4754046;30;20051;-67
2021/12/18 01:11:28;;;;;;;;;;;;;;;5.15;85.71;102942.44;4754397;30;20061;-67
2021/12/18 01:23:54;;;;;;;15.85;12.30;;;;;;;5.43;84.14;102947.84;4753541;30;20123;-67
2021/12/18 01:26:57;;;;;;;21.23;14.32;;;;;;;5.17;84.79;102952.81;4753662;30;20423;-67
2021/12/18 01:30:01;;;;;;;16.90;12.02;;;;;;;5.27;84.43;102955.50;4753638;30;20517;-67
2021/12/18 01:33:05;;;;;;;20.50;15.68;;;;;;;5.27;84.81;102957.25;4753336;30;20459;-67
2021/12/18 01:36:08;;;;;;;16.88;11.38;;;;;;;4.99;85.59;102958.69;4753547;30;20518;-67
2021/12/18 01:39:11;;;;;;;14.55;9.95;;;;;;;5.11;85.37;102966.59;4753284;30;20426;-67
2021/12/18 01:52:32;;;;;;;19.45;12.50;;;;;;;5.35;84.72;102981.50;4752278;30;20055;-67
2021/12/18 01:55:37;;;;;;;19.17;13.00;;;;;;;5.41;84.46;102983.28;4753166;30;20132;-67
2021/12/18 01:58:40;;;;;;;12.98;9.60;;;;;;;5.35;84.01;102982.38;4753130;30;20110;-67
2021/12/18 02:01:44;;;;;;;15.85;10.90;;;;;;;5.32;84.15;102974.56;4753160;30;20059;-67
2021/12/18 02:04:47;;;;;;;14.50;10.23;;;;;;;5.26;84.57;102990.06;4752699;30;20122;-67
2021/12/18 02:07:51;;;;;;;15.70;10.20;;;;;;;5.26;84.10;102982.28;4752825;30;20102;-67
2021/12/18 02:14:35;;;;;;;14.10;10.55;;;;;;;5.32;83.85;102990.13;4752939;30;20514;-67
2021/12/18 02:21:15;;;;;;;17.17;10.88;;;;;;;5.08;85.01;102980.41;4752799;30;20054;-67
2021/12/18 02:24:21;;;;;;;17.23;12.50;;;;;;;4.72;85.66;102980.00;4752669;30;20113;-67
2021/12/18 02:27:24;;;;;;;18.08;12.23;;;;;;;4.85;86.21;102975.00;4753014;30;20094;-67
2021/12/18 02:30:28;;;;;;;;;;;;;;;5.00;85.62;102971.66;4753069;30;20070;-67
2021/12/18 02:33:31;;;;;;;20.83;13.18;;;;;;;4.72;86.10;102974.81;4752236;30;19976;-67
2021/12/18 02:36:34;;;;;;;18.75;12.52;;;;;;;4.68;86.64;102978.22;4752629;30;20051;-67
2021/12/18 02:42:50;;;;;;;16.80;11.90;;;;;;;4.99;85.99;102974.25;4752333;30;20151;-67
2021/12/18 02:45:58;;;;;;;17.50;11.98;;;;;;;4.96;86.18;102982.88;4752275;30;20055;-67
2021/12/18 02:49:12;;;;;;;18.40;11.45;;;;;;;5.08;85.48;102979.53;4752249;30;20051;-67
2021/12/18 02:52:20;;;;;;;17.80;11.93;;;;;;;5.07;85.36;102977.78;4752120;30;20563;-67
2021/12/18 02:55:23;;;;;;;18.00;11.32;;;;;;;5.11;85.21;102979.56;4752251;30;20045;-67
2021/12/18 02:58:26;;;;;;;;;;;;;;;5.00;85.28;102981.16;4752715;30;20055;-67
2021/12/18 03:01:32;;;;;;;17.80;11.10;;;;;;;4.95;85.39;102983.72;4752150;30;20456;-67
2021/12/18 03:04:37;;;;;;;18.25;10.50;;;;;;;4.87;85.74;102991.41;4751637;30;20579;-67
2021/12/18 03:07:40;;;;;;;17.00;11.50;;;;;;;4.93;85.57;102989.75;4769308;30;20112;-67
2021/12/18 03:27:25;;;;;;;13.88;10.05;;;;;;;4.66;85.03;102991.19;4769517;30;20521;-67
2021/12/18 03:30:30;;;;;;;15.57;10.82;;;;;;;4.77;84.79;102993.88;4768824;30;20537;-67
2021/12/18 03:33:33;;;;;;;13.82;10.65;;;;;;;4.89;84.25;102992.31;4769198;30;20054;-67
2021/12/18 03:36:36;;;;;;;14.73;11.50;;;;;;;4.83;84.13;102989.66;4769759;30;20046;-67
2021/12/18 03:39:40;;;;;;;12.32;9.50;;;;;;;4.70;84.46;102982.59;4769559;30;20058;-67
2021/12/18 03:42:44;;;;;;;15.55;11.13;;;;;;;4.63;84.74;102991.16;4769251;30;20082;-67
2021/12/18 03:45:47;;;;;;;;;;;;;;;4.59;84.52;102994.53;4769568;30;20159;-67
2021/12/18 03:48:50;;;;;;;14.15;11.43;;;;;;;4.63;83.77;102997.19;4768946;30;20085;-67
2021/12/18 03:51:54;;;;;;;15.52;10.57;;;;;;;4.55;84.29;102996.22;4769407;30;20059;-67
2021/12/18 03:54:59;;;;;;;17.95;11.68;;;;;;;4.63;83.93;102981.66;4769164;30;20468;-67
2021/12/18 03:58:02;;;;;;;16.70;11.57;;;;;;;4.63;83.62;102985.97;4769063;30;20418;-67
2021/12/18 04:01:05;;;;;;;15.73;11.23;;;;;;;4.59;83.75;102973.81;4751328;30;20086;-67
2021/12/18 04:04:09;;;;;;;16.45;11.77;;;;;;;4.53;84.07;102981.50;4751030;30;20152;-67
2021/12/18 04:07:13;;;;;;;16.30;12.20;;;;;;;4.57;83.68;102980.72;4751358;30;20553;-67
2021/12/18 04:10:18;;;;;;;15.45;11.05;;;;;;;4.52;83.82;102982.38;4751273;30;20051;-67
2021/12/18 04:13:21;;;;;;;16.70;12.32;;;;;;;4.51;83.68;102981.50;4751084;30;20469;-67
2021/12/18 04:16:24;;;;;;;;;;;;;;;4.48;83.82;102978.88;4754618;30;20120;-67
2021/12/18 04:19:27;;;;;;;17.10;12.73;;;;;;;4.53;84.03;102978.91;4754837;30;20421;-67
2021/12/18 04:22:31;;;;;;;;;;;;;;;4.47;84.00;102981.44;4755190;30;20474;-67
2021/12/18 04:25:34;;;;;;;15.27;10.95;;;;;;;4.52;83.90;102972.88;4754721;30;20083;-67
2021/12/18 04:28:38;;;;;;;;;;;;;;;4.56;83.81;102981.53;4751308;30;20090;-67
2021/12/18 04:31:41;;;;;;;17.87;12.13;;;;;;;4.55;83.34;102977.22;4750744;30;19953;-68
2021/12/18 04:34:44;;;;;;;;;;;;;;;4.53;83.75;102969.44;4777224;30;20129;-67
2021/12/18 04:37:47;;;;;;;20.00;13.05;;;;;;;4.61;83.90;102977.28;4785112;30;19925;-67
2021/12/18 04:40:51;;;;;;;19.27;12.88;;;;;;;4.70;83.22;102972.22;4767528;30;20103;-68
2021/12/18 04:43:54;;;;;;;18.48;12.00;;;;;;;4.63;83.17;102980.78;4768070;30;20473;-67
2021/12/18 04:46:58;;;;;;;18.25;13.10;;;;;;;4.59;83.62;102977.25;4768215;30;20043;-67
2021/12/18 04:50:02;;;;;;;26.88;16.17;;;;;;;4.50;84.49;102979.78;4767020;30;20576;-67
2021/12/18 04:53:06;;;;;;;23.63;15.40;;;;;;;4.47;84.29;102978.84;4767588;30;20120;-67
2021/12/18 04:56:09;;;;;;;21.85;15.55;;;;;;;4.47;84.62;102978.84;4767346;30;20517;-67
2021/12/18 04:59:13;;;;;;;;;;;;;;;4.46;85.06;102977.09;4767655;30;20411;-67
2021/12/18 05:02:20;;;;;;;24.98;14.77;;;;;;;4.46;84.97;102984.88;4767402;30;19925;-67
2021/12/18 05:05:23;;;;;;;22.05;14.52;;;;;;;4.45;85.43;102977.97;4767895;30;20571;-67
2021/12/18 05:08:26;;;;;;;24.63;15.55;;;;;;;4.47;85.65;102981.44;4763616;30;20426;-67
2021/12/18 05:11:30;;;;;;;;;;;;;;;4.50;85.96;102984.06;4768167;30;20576;-67
2021/12/18 05:14:33;;;;;;;27.23;15.97;;;;;;;4.47;86.12;102982.31;4767119;30;19976;-67
2021/12/18 05:17:36;;;;;;;29.23;16.15;;;;;;;4.51;86.05;102989.28;4758223;30;20468;-67
2021/12/18 05:20:40;;;;;;;;;;;;;;;4.39;86.94;102992.56;4767194;30;20109;-67
2021/12/18 05:23:43;;;;;;;24.98;15.50;;;;;;;4.41;86.98;102985.69;4767340;30;19943;-68
2021/12/18 05:26:46;;;;;;;;;;;;;;;4.58;86.64;102992.81;4767790;30;20127;-67
2021/12/18 05:29:50;;;;;;;27.75;16.02;;;;;;;4.73;85.47;102982.63;4767361;30;19933;-67
2021/12/18 05:32:53;;;;;;;;;;;;;;;4.75;85.47;102980.91;4776089;30;20111;-67
2021/12/18 05:35:56;;;;;;;27.58;17.77;;;;;;;4.76;85.66;102976.63;4766890;30;19968;-67
2021/12/18 05:39:03;;;;;;;24.00;14.55;;;;;;;4.87;85.25;102965.47;4749044;30;20055;-67
2021/12/18 05:42:07;;;;;;;26.83;15.32;;;;;;;4.86;85.20;102958.56;4764224;30;20124;-67
2021/12/18 05:45:10;;;;;;;26.95;15.23;;;;;;;4.92;84.82;102964.69;4766782;30;20046;-67
2021/12/18 05:48:13;;;;;;;28.58;17.17;;;;;;;4.88;84.72;102967.25;4766320;30;20066;-68
2021/12/18 05:51:17;;;;;;;;;;;;;;;4.81;84.83;102962.81;4765801;30;20589;-67
2021/12/18 05:54:20;;;;;;;25.08;16.33;;;;;;;4.90;84.79;102965.53;4766375;30;19924;-67
2021/12/18 05:57:23;;;;;;;31.20;17.88;;;;;;;4.73;85.05;102967.06;4766651;30;20134;-67
2021/12/18 06:00:27;;;;;;;31.52;19.10;;;;;;;4.58;85.58;102962.56;4774476;30;20053;-67
2021/12/18 06:03:30;;;;;;;;;;;;;;;4.51;86.27;102972.88;4774480;30;20139;-67
2021/12/18 06:06:33;;;;;;;29.98;18.33;;;;;;;4.53;86.53;102974.63;4769564;30;20444;-67
2021/12/18 06:09:36;;;;;;;32.83;17.58;;;;;;;4.56;86.26;102966.00;4770417;30;20055;-67
2021/12/18 06:12:40;;;;;;;28.70;16.92;;;;;;;4.67;85.58;102964.41;4770637;30;20054;-68
2021/12/18 06:15:43;;;;;;;33.72;19.00;;;;;;;4.64;85.69;102965.25;4770618;30;20043;-68
2021/12/18 06:18:50;;;;;;;28.58;17.33;;;;;;;4.66;85.59;102967.88;4770659;30;20528;-68
2021/12/18 06:21:54;;;;;;;29.90;18.30;;;;;;;4.75;85.19;102959.31;4770551;30;20104;-67
2021/12/18 06:24:57;;;;;;;;;;;;;;;4.82;84.90;102961.13;4770840;30;20082;-67
2021/12/18 06:28:00;;;;;;;28.60;16.92;;;;;;;4.73;85.14;102961.88;4770119;30;19925;-68
2021/12/18 06:31:03;;;;;;;28.48;17.00;;;;;;;4.69;85.41;102960.13;4770091;30;20108;-68
2021/12/18 06:34:06;;;;;;;28.08;17.00;;;;;;;4.55;85.80;102954.75;4770682;30;20077;-68
2021/12/18 06:37:10;;;;;;;;;;;;;;;4.54;86.03;102958.22;4770590;30;20101;-68
2021/12/18 06:40:13;;;;;;;29.38;16.60;;;;;;;4.68;85.65;102958.38;4770287;30;19923;-68
2021/12/18 06:43:17;;;;;;;26.50;15.77;;;;;;;4.60;85.35;102955.69;4769855;30;20059;-68
2021/12/18 06:46:20;;;;;;;;;;;;;;;4.66;85.62;102960.97;4770586;30;20086;-68
2021/12/18 06:49:23;;;;;;;33.10;17.75;;;;;;;4.77;85.44;102962.78;4770347;30;19957;-68
2021/12/18 06:52:26;;;;;;;;;;;;;;;4.62;85.56;102958.28;4770478;30;20090;-68
2021/12/18 06:55:30;;;;;;;30.58;18.60;;;;;;;4.67;85.28;102961.81;4769743;30;20383;-68
2021/12/18 06:58:33;;;;;;;33.20;21.58;;;;;;;4.54;85.88;102965.13;4772104;30;20329;-68
2021/12/18 07:01:36;;;;;;;;;;;;;;;4.63;85.94;102962.66;4768770;30;20119;-68
2021/12/18 07:04:40;;;;;;;30.83;18.08;;;;;;;4.82;85.70;102962.00;4769231;30;19924;-68
2021/12/18 07:07:43;;;;;;;29.13;17.92;;;;;;;4.83;85.56;102963.72;4769378;30;20426;-68
2021/12/18 07:10:47;;;;;;;;;;;;;;;4.85;85.46;102961.13;4769661;30;20535;-67
2021/12/18 07:13:50;;;;;;;33.55;20.10;;;;;;;4.72;85.52;102961.84;4769537;30;19924;-67
2021/12/18 07:16:53;;;;;;;29.77;18.38;;;;;;;4.83;85.46;102963.72;4769545;30;20588;-67
2021/12/18 07:19:57;;;;;;;;;;;;;;;4.75;85.67;102962.75;4770021;30;20478;-68
2021/12/18 07:23:00;;;;;;;29.52;16.73;;;;;;;4.69;86.30;102967.00;4769553;30;20304;-68
2021/12/18 07:26:04;;;;;;;26.35;16.58;;;;;;;4.60;86.52;102963.47;4769220;30;20058;-68
2021/12/18 07:29:07;;;;;;;28.38;16.92;;;;;;;4.58;87.04;102965.16;4769296;30;20054;-68
2021/12/18 07:32:10;;;;;;;31.50;18.75;;;;;;;4.61;87.11;102966.94;4769347;30;20058;-68
2021/12/18 07:35:14;;;;;;;32.03;16.75;;;;;;;4.63;87.19;102968.69;4769334;30;20127;-68
2021/12/18 07:38:17;;;;;;;;;;;;;;;4.63;86.60;102971.28;4769071;30;20046;-68
2021/12/18 07:41:20;;;;;;;28.10;16.85;;;;;;;4.73;86.48;102976.56;4778596;30;19924;-68
2021/12/18 07:44:23;;;;;;;;;;;;;;;4.68;86.52;102973.06;4769641;30;20054;-68
2021/12/18 07:47:26;;;;;;;27.08;16.70;;;;;;;4.70;86.52;102976.53;4769060;30;19928;-68
2021/12/18 07:50:30;;;;;;;;;;;;;;;4.67;86.81;102979.97;4768852;30;20086;-67
2021/12/18 07:53:33;;;;;;;28.60;15.82;;;;;;;4.67;86.82;102985.16;4769009;30;19967;-67
2021/12/18 07:56:36;;;;;;;27.58;17.08;;;;;;;4.68;86.36;102986.88;4768749;30;20047;-67
2021/12/18 07:59:39;;;;;;;29.40;18.25;;;;;;;4.69;86.80;102982.56;4768796;30;20418;-67
2021/12/18 08:02:42;;;;;;;27.88;16.65;;;;;;;4.70;86.81;102985.19;4769057;30;20082;-67
2021/12/18 08:05:46;;;;;;;29.45;18.10;;;;;;;4.77;86.18;102980.94;4768760;30;20066;-67
2021/12/18 08:08:50;;;;;;;;;;;;;;;4.81;86.41;102975.78;4769344;30;20050;-67
2021/12/18 08:11:54;;;;;;;28.48;16.80;;;;;;;4.72;86.33;102980.00;4769167;30;19924;-67
2021/12/18 08:14:58;;;;;;;25.90;16.35;;;;;;;4.76;86.76;102986.97;4768891;30;20410;-67
2021/12/18 08:18:06;;;;;;;30.63;18.10;;;;;;;4.72;86.57;102987.78;4768365;30;20488;-67
2021/12/18 08:21:09;;;;;;;27.33;16.90;;;;;;;4.80;86.72;102988.75;4768629;30;20415;-67
2021/12/18 08:24:12;;;;;;;26.63;17.05;;;;;;;4.73;87.49;102992.13;4768998;30;20522;-67
2021/12/18 08:27:16;;;;;;;29.90;18.15;;;;;;;4.72;87.62;102991.22;4768915;30;20047;-67
2021/12/18 08:30:19;;;;;;;29.80;18.73;;;;;;;4.70;87.77;102998.13;4768168;30;20529;-67
2021/12/18 08:33:22;;;;;;;;;;;;;;;4.75;88.03;102995.59;4768531;30;20055;-67
2021/12/18 08:36:26;;;;;;;31.70;16.77;;;;;;;4.73;87.64;102992.13;4768725;30;20468;-67
2021/12/18 08:39:29;;;;;;;;;;;;;;;4.80;87.25;102984.44;4769047;30;20055;-67
2021/12/18 08:42:33;;;;;;;26.35;15.82;;;;;;;4.84;87.14;102991.38;4768702;30;19990;-67
2021/12/18 08:45:36;;;;;;;;;;;;;;;4.82;87.23;102987.91;4768933;30;20093;-67
2021/12/18 08:48:39;;;;;;;28.52;17.42;;;;;;;4.85;87.55;102987.94;4768769;30;19999;-67
2021/12/18 08:51:43;;;;;;;28.88;16.80;;;;;;;4.87;87.55;102991.41;4768720;30;20089;-67
2021/12/18 08:54:46;;;;;;;26.38;16.17;;;;;;;4.90;87.95;102990.56;4767380;30;20108;-67
2021/12/18 08:57:50;;;;;;;;;;;;;;;5.02;86.84;102984.66;4768914;30;20054;-67
2021/12/18 09:00:53;;;;;;;19.98;15.02;;;;;;;5.12;86.61;102983.91;4767839;30;20130;-67
2021/12/18 09:03:57;;;;;;;;;;;;;;;5.23;85.88;102984.88;4770680;30;20097;-67
2021/12/18 09:07:00;;;;;;;23.35;15.40;;;;;;;5.21;85.99;102981.38;4770042;30;19929;-67
2021/12/18 09:10:06;;;;;;;22.23;14.55;;;;;;;5.13;86.53;102970.06;4781076;30;20475;-67
2021/12/18 09:13:10;;;;;;;23.02;15.15;;;;;;;5.13;86.37;102977.84;4770760;30;20078;-67
2021/12/18 09:16:13;;;;;;;;;;;;;;;5.18;86.89;102975.31;4771736;30;20047;-67
2021/12/18 09:19:16;;;;;;;28.13;16.63;;;;;;;5.27;86.47;102976.25;4770542;30;19978;-67
2021/12/18 09:22:20;;;;;;;;;;;;;;;5.26;86.13;102974.50;4771855;30;20525;-67
2021/12/18 09:25:23;;;;;;;47.88;29.35;;;;;;;5.34;86.18;102970.25;4770440;30;20407;-67
2021/12/18 09:28:26;;;;;;;;;;;;;;;5.34;86.56;102977.19;4771845;30;20063;-67
2021/12/18 09:31:29;;;;;;;24.20;15.70;;;;;;;5.24;86.80;102976.22;4771106;30;19969;-67
2021/12/18 09:34:33;;;;;;;;;;;;;;;5.36;86.50;102985.84;4771575;30;20658;-67
2021/12/18 09:37:38;;;;;;;24.67;14.60;;;;;;;5.07;86.73;102982.97;4771054;30;20419;-67
2021/12/18 09:40:43;;;;;;;24.23;14.75;;;;;;;5.20;87.04;102981.34;4771125;30;20055;-67
2021/12/18 09:43:47;;;;;;;22.92;14.93;;;;;;;5.25;86.46;102967.59;4771195;30;20112;-67
2021/12/18 09:46:52;;;;;;;20.45;14.27;;;;;;;5.33;86.06;102976.31;4770710;30;20105;-67
2021/12/18 09:49:55;;;;;;;22.50;15.40;;;;;;;5.34;86.25;102970.25;4770942;30;20485;-67
2021/12/18 09:52:59;;;;;;;21.77;15.52;;;;;;;5.31;86.65;102967.63;4770905;30;20054;-67
2021/12/18 09:56:04;;;;;;;26.23;14.80;;;;;;;5.43;86.54;102964.28;4770994;30;20046;-67
2021/12/18 09:59:07;;;;;;;22.13;14.00;;;;;;;5.40;86.46;102961.66;4770847;30;20066;-67
2021/12/18 10:02:10;;;;;;;;;;;;;;;5.43;86.29;102966.03;4780762;30;20096;-67
2021/12/18 10:05:32;;;;;;;17.88;12.55;;;;;;;5.43;86.24;102953.91;4770564;30;19928;-67
2021/12/18 10:08:41;;;;;;;18.98;12.80;;;;;;;5.45;86.29;102956.50;4770602;30;20533;-67
2021/12/18 10:12:24;;;;;;;18.60;12.75;;;;;;;5.50;86.57;102953.09;4752691;30;20105;-67
2021/12/18 10:15:27;;;;;;;17.55;12.40;;;;;;;5.52;86.76;102947.91;4753116;30;20051;-67
2021/12/18 10:18:32;;;;;;;17.08;11.02;;;;;;;5.59;86.29;102947.09;4752617;30;20070;-67
2021/12/18 10:21:36;;;;;;;17.92;11.05;;;;;;;5.58;86.53;102951.44;4752526;30;20419;-67
2021/12/18 10:24:40;;;;;;;;;;;;;;;5.59;86.51;102942.78;4753034;30;20067;-67
2021/12/18 10:27:57;;;;;;;12.55;8.95;;;;;;;5.72;85.79;102935.09;4752782;30;20346;-68
2021/12/18 10:31:00;;;;;;;11.02;8.20;;;;;;;5.62;85.62;102936.75;4752597;30;20120;-68
2021/12/18 10:34:25;;;;;;;11.55;8.02;;;;;;;5.70;85.07;102924.69;4752468;30;20068;-68
2021/12/18 10:37:31;;;;;;;11.82;7.38;;;;;;;5.73;85.36;102916.91;4752680;30;20570;-68
2021/12/18 10:40:44;;;;;;;11.15;7.28;;;;;;;5.83;85.29;102920.44;4751603;30;20059;-68
2021/12/18 10:44:08;;;;;;;12.85;8.05;;;;;;;5.86;85.05;102915.25;4752457;30;20051;-68
2021/12/18 10:47:12;;;;;;;;;;;;;;;5.89;84.62;102910.06;4752973;30;20111;-68
2021/12/18 10:50:20;;;;;;;;;;;;;;;5.90;83.87;102916.13;4752718;30;20453;-68
2021/12/18 10:53:31;;;;;;;8.55;5.78;;;;;;;5.89;84.12;102914.41;4752372;30;19924;-67
2021/12/18 10:56:41;;;;;;;8.35;5.60;;;;;;;5.93;84.11;102908.41;4752267;30;20543;-68
2021/12/18 10:59:50;;;;;;;8.02;5.60;;;;;;;5.80;84.16;102905.69;4752195;30;20117;-68
2021/12/18 11:02:53;;;;;;;7.30;4.88;;;;;;;5.83;84.07;102905.72;4752238;30;20059;-68
2021/12/18 11:13:48;;;;;;;6.05;3.63;;;;;;;5.91;82.91;102891.94;4769229;30;20101;-67
2021/12/18 11:16:54;;;;;;;6.78;4.40;;;;;;;5.88;83.26;102884.13;4770065;30;20082;-67
2021/12/18 11:19:58;;;;;;;6.28;4.25;;;;;;;5.90;82.89;102890.16;4769405;30;20063;-67
2021/12/18 11:23:01;;;;;;;6.35;4.28;;;;;;;5.88;83.11;102876.34;4769691;30;20078;-67
2021/12/18 11:26:09;;;;;;;7.68;5.38;;;;;;;5.78;83.53;102872.81;4774574;30;20087;-67
2021/12/18 11:29:19;;;;;;;9.15;5.88;;;;;;;5.71;83.92;102873.63;4769263;30;20043;-67
2021/12/18 11:32:37;;;;;;;6.70;4.70;;;;;;;5.81;83.89;102875.44;4772745;30;20042;-67
2021/12/18 11:35:42;;;;;;;6.82;4.88;;;;;;;5.93;82.61;102859.91;4770046;30;20525;-67
2021/12/18 11:38:47;;;;;;;7.38;4.55;;;;;;;5.93;82.41;102866.84;4769171;30;20054;-67
2021/12/18 11:41:52;;;;;;;7.20;5.18;;;;;;;5.86;82.87;102862.47;4768149;30;20050;-67
2021/12/18 11:44:57;;;;;;;7.82;5.07;;;;;;;5.82;83.15;102867.63;4769433;30;20474;-67
2021/12/18 11:48:02;;;;;;;8.85;5.13;;;;;;;5.86;83.22;102867.66;4778206;30;20165;-67
2021/12/18 11:51:12;;;;;;;7.28;4.85;;;;;;;5.84;83.25;102854.69;4769109;30;20575;-67
2021/12/18 11:54:43;;;;;;;6.82;4.82;;;;;;;5.88;83.46;102853.81;4769229;30;20418;-68
2021/12/18 11:57:52;;;;;;;7.78;4.43;;;;;;;5.83;83.20;102843.41;4769110;30;20050;-68
2021/12/18 12:01:00;;;;;;;8.48;5.07;;;;;;;5.80;83.61;102843.38;4769020;30;20086;-68
2021/12/18 12:04:03;;;;;;;8.50;5.45;;;;;;;5.83;83.22;102843.41;4768640;30;20140;-68
2021/12/18 12:07:21;;;;;;;8.02;4.60;;;;;;;5.90;83.54;102843.44;4768541;30;20131;-68
2021/12/18 12:10:47;;;;;;;9.35;6.18;;;;;;;5.91;83.12;102840.00;4751233;30;20067;-68
2021/12/18 12:13:57;;;;;;;9.63;7.57;;;;;;;5.98;82.83;102841.78;4751915;30;20106;-68
2021/12/18 12:17:05;;;;;;;9.50;7.30;;;;;;;6.02;82.86;102833.13;4775726;30;20054;-68
2021/12/18 12:20:08;;;;;;;9.40;6.43;;;;;;;5.93;83.47;102822.69;4773624;30;21111;-68
2021/12/18 12:23:14;;;;;;;10.25;6.25;;;;;;;5.92;83.54;102827.00;4751120;30;20165;-68
2021/12/18 12:26:23;;;;;;;16.77;12.18;;;;;;;6.03;83.01;102821.88;4771285;30;20564;-68
2021/12/18 12:29:45;;;;;;;10.73;7.45;;;;;;;6.03;82.58;102820.16;4786429;30;20134;-68
2021/12/18 12:32:57;;;;;;;24.67;15.32;;;;;;;6.12;82.40;102827.09;4772145;30;20595;-68
2021/12/18 12:36:06;;;;;;;10.95;7.50;;;;;;;5.97;82.95;102829.66;4769585;30;20464;-68
2021/12/18 12:39:09;;;;;;;8.45;5.50;;;;;;;5.93;82.77;102827.91;4771321;30;20090;-68
2021/12/18 12:42:13;;;;;;;9.57;5.90;;;;;;;5.97;82.86;102821.88;4772358;30;20169;-68
2021/12/18 12:45:39;;;;;;;8.90;6.43;;;;;;;6.08;82.78;102820.16;4771935;30;20475;-68
2021/12/18 12:49:12;;;;;;;10.05;6.22;;;;;;;5.92;83.03;102816.63;4775194;30;20080;-68
2021/12/18 12:52:18;;;;;;;7.30;4.95;;;;;;;5.91;83.34;102814.88;4772118;30;20054;-68
2021/12/18 12:55:25;;;;;;;7.85;5.43;;;;;;;5.90;83.40;102804.47;4771939;30;20135;-68
2021/12/18 12:58:28;;;;;;;8.07;5.03;;;;;;;5.93;82.88;102807.13;4772165;30;20108;-68
2021/12/18 13:01:37;;;;;;;8.50;5.38;;;;;;;5.95;82.71;102805.41;4766084;30;20074;-68
2021/12/18 13:04:40;;;;;;;8.82;6.10;;;;;;;5.89;82.78;102800.16;4765125;30;20253;-69
2021/12/18 13:07:46;;;;;;;7.47;5.07;;;;;;;5.84;83.28;102797.56;4759365;30;20139;-69
2021/12/18 13:10:53;;;;;;;7.40;5.60;;;;;;;5.81;83.33;102792.34;4762541;30;20059;-69
2021/12/18 13:13:56;;;;;;;9.27;6.43;;;;;;;5.90;83.45;102791.50;4752517;30;20615;-68
2021/12/18 13:17:00;;;;;;;9.85;7.25;;;;;;;5.87;83.13;102796.69;4754498;30;20047;-68
2021/12/18 13:20:05;;;;;;;9.57;6.25;;;;;;;5.99;82.77;102796.75;4751002;30;20534;-69
2021/12/18 13:23:12;;;;;;;9.30;6.15;;;;;;;5.95;82.34;102785.50;4743383;30;20103;-68
2021/12/18 13:26:35;;;;;;;10.93;7.13;;;;;;;5.87;82.94;102786.28;4753626;30;20456;-68
2021/12/18 13:29:38;;;;;;;9.23;5.90;;;;;;;5.86;83.05;102779.38;4752494;30;20081;-69
2021/12/18 13:32:53;;;;;;;9.00;5.95;;;;;;;5.92;82.87;102775.06;4753382;30;20125;-69
2021/12/18 13:35:59;;;;;;;8.02;6.00;;;;;;;6.02;82.33;102773.41;4753649;30;20055;-69
2021/12/18 13:39:10;;;;;;;8.00;5.88;;;;;;;5.97;82.17;102781.19;4741189;30;20051;-69
2021/12/18 13:42:22;;;;;;;8.65;6.20;;;;;;;5.77;83.46;102777.59;4770939;30;20046;-68
2021/12/18 13:45:25;;;;;;;9.93;6.50;;;;;;;5.87;83.18;102778.50;4771000;30;20532;-68
2021/12/18 13:48:34;;;;;;;7.55;5.80;;;;;;;5.70;83.95;102778.44;4769796;30;20046;-69
2021/12/18 13:51:38;;;;;;;8.82;6.00;;;;;;;5.77;84.19;102770.69;4764952;30;20113;-69
2021/12/18 13:54:41;;;;;;;9.07;6.40;;;;;;;5.91;83.88;102782.88;4753127;30;20419;-69
2021/12/18 13:58:11;;;;;;;9.73;6.20;;;;;;;5.68;83.64;102778.47;4757484;30;20418;-69
2021/12/18 14:01:22;;;;;;;12.77;9.00;;;;;;;4.81;87.90;102785.69;4758758;30;20124;-69
2021/12/18 14:04:26;;;;;;;11.05;7.90;;;;;;;4.98;87.98;102776.34;4753758;30;20109;-69
2021/12/18 14:07:29;;;;;;;;;;;;;;;4.94;87.66;102774.56;4768966;30;20526;-69
2021/12/18 14:10:33;;;;;;;18.48;12.95;;;;;;;4.98;87.94;102772.84;4781843;30;20018;-69
2021/12/18 14:14:07;;;;;;;15.05;10.68;;;;;;;5.07;87.87;102776.41;4788357;30;20090;-69
2021/12/18 14:17:15;;;;;;;6.60;4.47;;;;;;;5.34;86.46;102767.91;4788439;30;20110;-69
2021/12/18 14:20:19;;;;;;;8.80;5.97;;;;;;;5.43;86.66;102776.63;4772026;30;20204;-69
2021/12/18 14:23:35;;;;;;;;;;;;;;;5.39;86.41;102775.69;4770694;30;20054;-69
2021/12/18 14:26:40;;;;;;;11.43;7.63;;;;;;;5.04;87.24;102778.09;4769344;30;20433;-69
2021/12/18 14:29:50;;;;;;;11.90;8.15;;;;;;;5.14;87.01;102777.31;4770247;30;20498;-69
2021/12/18 14:33:11;;;;;;;11.65;7.47;;;;;;;4.93;87.38;102778.03;4769934;30;20081;-69
2021/12/18 14:36:15;;;;;;;12.07;7.88;;;;;;;4.64;89.19;102781.25;4759141;30;20055;-69
2021/12/18 14:39:22;;;;;;;12.70;7.78;;;;;;;4.50;89.82;102777.69;4752725;30;20086;-69
2021/12/18 14:42:37;;;;;;;12.75;8.43;;;;;;;4.62;89.39;102771.72;4768900;30;20110;-69
2021/12/18 14:45:40;;;;;;;15.10;8.30;;;;;;;4.59;89.43;102769.09;4773676;30;20104;-69
2021/12/18 14:48:43;;;;;;;;;;;;;;;4.87;89.16;102772.78;4783017;30;20066;-69
2021/12/18 14:52:06;;;;;;;13.40;9.10;;;;;;;5.17;87.72;102761.78;4769962;30;19952;-69
2021/12/18 14:55:09;;;;;;;13.85;8.80;;;;;;;5.38;86.93;102766.19;4771656;30;20050;-69
2021/12/18 14:58:22;;;;;;;12.98;8.98;;;;;;;5.45;86.26;102767.09;4770801;29;20058;-69
2021/12/18 15:01:25;;;;;;;13.02;9.73;;;;;;;5.48;85.48;102772.28;4769099;30;20058;-69
2021/12/18 15:04:28;;;;;;;13.85;9.88;;;;;;;5.39;84.79;102767.06;4769802;30;20490;-69
2021/12/18 15:07:32;;;;;;;15.30;11.00;;;;;;;5.39;84.92;102772.25;4769520;30;20077;-69
2021/12/18 15:10:49;;;;;;;17.98;11.77;;;;;;;4.79;86.89;102766.69;4769565;30;20507;-69
2021/12/18 15:13:54;;;;;;;14.20;9.93;;;;;;;4.90;86.55;102760.72;4769934;30;20055;-69
2021/12/18 15:17:02;;;;;;;16.92;12.05;;;;;;;5.06;85.17;102763.41;4751799;30;20117;-69
2021/12/18 15:20:06;;;;;;;12.45;9.68;;;;;;;5.16;84.71;102765.19;4751786;30;20059;-69
2021/12/18 15:23:09;;;;;;;;;;;;;;;5.02;85.29;102759.06;4753581;30;20106;-69
2021/12/18 15:26:13;;;;;;;14.77;10.00;;;;;;;4.93;84.85;102759.00;4770525;30;20519;-69
2021/12/18 15:29:18;;;;;;;13.77;9.77;;;;;;;5.06;84.42;102756.50;4769538;30;20105;-69